Map

Track Data

SID SEASON NUMBER BASIN SUBBASIN NAME ISO_TIME NATURE LAT LON WMO_WIND WMO_PRES WMO_AGENCY TRACK_TYPE DIST2LAND LANDFALL IFLAG USA_AGENCY USA_ATCF_ID USA_LAT USA_LON USA_RECORD USA_STATUS USA_WIND USA_PRES USA_SSHS USA_R34_NE USA_R34_SE USA_R34_SW USA_R34_NW USA_R50_NE USA_R50_SE USA_R50_SW USA_R50_NW USA_R64_NE USA_R64_SE USA_R64_SW USA_R64_NW USA_POCI USA_ROCI USA_RMW USA_EYE TOKYO_LAT TOKYO_LON TOKYO_GRADE TOKYO_WIND TOKYO_PRES TOKYO_R50_DIR TOKYO_R50_LONG TOKYO_R50_SHORT TOKYO_R30_DIR TOKYO_R30_LONG TOKYO_R30_SHORT TOKYO_LAND CMA_LAT CMA_LON CMA_CAT CMA_WIND CMA_PRES HKO_LAT HKO_LON HKO_CAT HKO_WIND HKO_PRES NEWDELHI_LAT NEWDELHI_LON NEWDELHI_GRADE NEWDELHI_WIND NEWDELHI_PRES NEWDELHI_CI NEWDELHI_DP NEWDELHI_POCI REUNION_LAT REUNION_LON REUNION_TYPE REUNION_WIND REUNION_PRES REUNION_TNUM REUNION_CI REUNION_RMW REUNION_R34_NE REUNION_R34_SE REUNION_R34_SW REUNION_R34_NW REUNION_R50_NE REUNION_R50_SE REUNION_R50_SW REUNION_R50_NW REUNION_R64_NE REUNION_R64_SE REUNION_R64_SW REUNION_R64_NW BOM_LAT BOM_LON BOM_TYPE BOM_WIND BOM_PRES BOM_TNUM BOM_CI BOM_RMW BOM_R34_NE BOM_R34_SE BOM_R34_SW BOM_R34_NW BOM_R50_NE BOM_R50_SE BOM_R50_SW BOM_R50_NW BOM_R64_NE BOM_R64_SE BOM_R64_SW BOM_R64_NW BOM_ROCI BOM_POCI BOM_EYE BOM_POS_METHOD BOM_PRES_METHOD NADI_LAT NADI_LON NADI_CAT NADI_WIND NADI_PRES WELLINGTON_LAT WELLINGTON_LON WELLINGTON_WIND WELLINGTON_PRES DS824_LAT DS824_LON DS824_STAGE DS824_WIND DS824_PRES TD9636_LAT TD9636_LON TD9636_STAGE TD9636_WIND TD9636_PRES TD9635_LAT TD9635_LON TD9635_WIND TD9635_PRES TD9635_ROCI NEUMANN_LAT NEUMANN_LON NEUMANN_CLASS NEUMANN_WIND NEUMANN_PRES MLC_LAT MLC_LON MLC_CLASS MLC_WIND MLC_PRES USA_GUST BOM_GUST BOM_GUST_PER REUNION_GUST REUNION_GUST_PER USA_SEAHGT USA_SEARAD_NE USA_SEARAD_SE USA_SEARAD_SW USA_SEARAD_NW STORM_SPEED STORM_DIR
1933251N15303 1933 50 NA NA NOT_NAMED 1933-09-08 00:00:00 TS 15.4000 -56.6000 30 hurdat_atl main 710 695 O_____________ hurdat_atl AL121933 15.4000 -56.6000 TD 30 -1 7 286
1933251N15303 1933 50 NA NA NOT_NAMED 1933-09-08 03:00:00 TS 15.4951 -56.9425 main 697 679 P_____________ AL121933 15.4951 -56.9425 TD 32 -1 7 286
1933251N15303 1933 50 NA NA NOT_NAMED 1933-09-08 06:00:00 TS 15.6000 -57.3000 35 hurdat_atl main 679 664 O_____________ hurdat_atl AL121933 15.6000 -57.3000 TS 35 0 7 288
1933251N15303 1933 50 NA NA NOT_NAMED 1933-09-08 09:00:00 TS 15.7275 -57.6725 main 664 662 P_____________ AL121933 15.7275 -57.6725 TS 35 0 7 294
1933251N15303 1933 50 NA NA NOT_NAMED 1933-09-08 12:00:00 TS 15.9000 -58.0000 35 hurdat_atl main 666 661 O_____________ hurdat_atl AL121933 15.9000 -58.0000 TS 35 0 7 307
1933251N15303 1933 50 NA NA NOT_NAMED 1933-09-08 15:00:00 TS 16.1349 -58.2300 main 676 676 P_____________ AL121933 16.1349 -58.2300 TS 37 0 6 322
1933251N15303 1933 50 NA NA NOT_NAMED 1933-09-08 18:00:00 TS 16.4000 -58.4000 40 hurdat_atl main 697 697 O_____________ hurdat_atl AL121933 16.4000 -58.4000 TS 40 0 6 329
1933251N15303 1933 50 NA NA NOT_NAMED 1933-09-08 21:00:00 TS 16.6500 -58.5576 main 709 709 P_____________ AL121933 16.6500 -58.5576 TS 42 0 6 330
1933251N15303 1933 50 NA NA NOT_NAMED 1933-09-09 00:00:00 TS 16.9000 -58.7000 45 hurdat_atl main 737 731 O_____________ hurdat_atl AL121933 16.9000 -58.7000 TS 45 0 6 330
1933251N15303 1933 50 NA NA NOT_NAMED 1933-09-09 03:00:00 TS 17.1500 -58.8575 main 718 704 P_____________ AL121933 17.1500 -58.8575 TS 47 0 6 330
1933251N15303 1933 50 NA NA NOT_NAMED 1933-09-09 06:00:00 TS 17.4000 -59.0000 50 hurdat_atl main 704 691 O_____________ hurdat_atl AL121933 17.4000 -59.0000 TS 50 0 6 333
1933251N15303 1933 50 NA NA NOT_NAMED 1933-09-09 09:00:00 TS 17.6425 -59.1150 main 691 677 P_____________ AL121933 17.6425 -59.1150 TS 52 0 5 339
1933251N15303 1933 50 NA NA NOT_NAMED 1933-09-09 12:00:00 TS 17.9000 -59.2000 55 hurdat_atl main 677 665 O_____________ hurdat_atl AL121933 17.9000 -59.2000 TS 55 0 6 346
1933251N15303 1933 50 NA NA NOT_NAMED 1933-09-09 15:00:00 TS 18.1925 -59.2575 main 665 664 P_____________ AL121933 18.1925 -59.2575 TS 57 0 6 351
1933251N15303 1933 50 NA NA NOT_NAMED 1933-09-09 18:00:00 TS 18.5000 -59.3000 60 hurdat_atl main 664 664 O_____________ hurdat_atl AL121933 18.5000 -59.3000 TS 60 0 6 352
1933251N15303 1933 50 NA NA NOT_NAMED 1933-09-09 21:00:00 TS 18.7925 -59.3500 main 654 654 P_____________ AL121933 18.7925 -59.3500 TS 62 0 6 351
1933251N15303 1933 50 NA NA NOT_NAMED 1933-09-10 00:00:00 TS 19.1000 -59.4000 65 hurdat_atl main 657 657 O_____________ hurdat_atl AL121933 19.1000 -59.4000 HU 65 1 7 352
1933251N15303 1933 50 NA NA NOT_NAMED 1933-09-10 03:00:00 TS 19.4425 -59.4426 main 661 653 P_____________ AL121933 19.4425 -59.4426 HU 67 1 7 352
1933251N15303 1933 50 NA NA NOT_NAMED 1933-09-10 06:00:00 TS 19.8000 -59.5000 70 hurdat_atl main 659 657 O_____________ hurdat_atl AL121933 19.8000 -59.5000 HU 70 1 7 350
1933251N15303 1933 50 NA NA NOT_NAMED 1933-09-10 09:00:00 TS 20.1500 -59.5776 main 657 657 P_____________ AL121933 20.1500 -59.5776 HU 72 1 7 345
1933251N15303 1933 50 NA NA NOT_NAMED 1933-09-10 12:00:00 TS 20.5000 -59.7000 75 hurdat_atl main 661 654 O_____________ hurdat_atl AL121933 20.5000 -59.7000 HU 75 1 8 337
1933251N15303 1933 50 NA NA NOT_NAMED 1933-09-10 15:00:00 TS 20.8500 -59.8924 main 659 649 P_____________ AL121933 20.8500 -59.8924 HU 77 1 8 332
1933251N15303 1933 50 NA NA NOT_NAMED 1933-09-10 18:00:00 TS 21.2000 -60.1000 80 hurdat_atl main 655 651 O_____________ hurdat_atl AL121933 21.2000 -60.1000 HU 80 1 8 335
1933251N15303 1933 50 NA NA NOT_NAMED 1933-09-10 21:00:00 TS 21.5725 -60.2576 main 659 659 P_____________ AL121933 21.5725 -60.2576 HU 85 2 8 338
1933251N15303 1933 50 NA NA NOT_NAMED 1933-09-11 00:00:00 TS 21.9000 -60.4000 90 hurdat_atl main 669 667 O_____________ hurdat_atl AL121933 21.9000 -60.4000 HU 90 2 6 334
1933251N15303 1933 50 NA NA NOT_NAMED 1933-09-11 03:00:00 TS 22.1300 -60.5501 main 665 664 P_____________ AL121933 22.1300 -60.5501 HU 92 2 5 325
1933251N15303 1933 50 NA NA NOT_NAMED 1933-09-11 06:00:00 TS 22.3000 -60.7000 95 hurdat_atl main 671 670 O_____________ hurdat_atl AL121933 22.3000 -60.7000 HU 95 2 4 320
1933251N15303 1933 50 NA NA NOT_NAMED 1933-09-11 09:00:00 TS 22.4575 -60.8501 main 670 670 P_____________ AL121933 22.4575 -60.8501 HU 100 3 4 317
1933251N15303 1933 50 NA NA NOT_NAMED 1933-09-11 12:00:00 TS 22.6000 -61.0000 105 hurdat_atl main 670 663 O_____________ hurdat_atl AL121933 22.6000 -61.0000 HU 105 3 4 316
1933251N15303 1933 50 NA NA NOT_NAMED 1933-09-11 15:00:00 TS 22.7425 -61.1501 main 664 664 P_____________ AL121933 22.7425 -61.1501 HU 110 3 4 317
1933251N15303 1933 50 NA NA NOT_NAMED 1933-09-11 18:00:00 TS 22.9000 -61.3000 115 hurdat_atl main 673 673 O_____________ hurdat_atl AL121933 22.9000 -61.3000 HU 115 4 4 325
1933251N15303 1933 50 NA NA NOT_NAMED 1933-09-11 21:00:00 TS 23.0773 -61.4054 main 683 676 P_____________ AL121933 23.0773 -61.4054 HU 117 4 5 325
1933251N15303 1933 50 NA NA NOT_NAMED 1933-09-12 00:00:00 TS 23.3000 -61.6000 120 hurdat_atl main 687 681 O_____________ hurdat_atl AL121933 23.3000 -61.6000 HU 120 4 7 313
1933251N15303 1933 50 NA NA NOT_NAMED 1933-09-12 03:00:00 TS 23.5776 -61.9975 main 691 685 P_____________ AL121933 23.5776 -61.9975 HU 120 4 10 306
1933251N15303 1933 50 NA NA NOT_NAMED 1933-09-12 06:00:00 TS 23.9000 -62.5000 120 hurdat_atl main 693 689 O_____________ hurdat_atl AL121933 23.9000 -62.5000 HU 120 4 11 307
1933251N15303 1933 50 NA NA NOT_NAMED 1933-09-12 09:00:00 TS 24.2498 -62.9851 main 702 702 P_____________ AL121933 24.2498 -62.9851 HU 120 4 12 308
1933251N15303 1933 50 NA NA NOT_NAMED 1933-09-12 12:00:00 TS 24.6000 -63.5000 120 hurdat_atl main 726 723 O_____________ hurdat_atl AL121933 24.6000 -63.5000 HU 120 4 12 304
1933251N15303 1933 50 NA NA NOT_NAMED 1933-09-12 15:00:00 TS 24.9074 -64.0428 main 745 743 P_____________ AL121933 24.9074 -64.0428 HU 120 4 12 301
1933251N15303 1933 50 NA NA NOT_NAMED 1933-09-12 18:00:00 TS 25.2000 -64.6000 120 hurdat_atl main 767 765 O_____________ hurdat_atl AL121933 25.2000 -64.6000 HU 120 4 12 300
1933251N15303 1933 50 NA NA NOT_NAMED 1933-09-12 21:00:00 TS 25.4999 -65.1577 main 794 794 P_____________ AL121933 25.4999 -65.1577 HU 120 4 12 301
1933251N15303 1933 50 NA NA NOT_NAMED 1933-09-13 00:00:00 TS 25.8000 -65.7000 120 hurdat_atl main 815 810 O_____________ hurdat_atl AL121933 25.8000 -65.7000 HU 120 4 11 303
1933251N15303 1933 50 NA NA NOT_NAMED 1933-09-13 03:00:00 TS 26.0997 -66.2004 main 823 819 P_____________ AL121933 26.0997 -66.2004 HU 120 4 11 304
1933251N15303 1933 50 NA NA NOT_NAMED 1933-09-13 06:00:00 TS 26.4000 -66.7000 120 hurdat_atl main 831 827 O_____________ hurdat_atl AL121933 26.4000 -66.7000 HU 120 4 11 303
1933251N15303 1933 50 NA NA NOT_NAMED 1933-09-13 09:00:00 TS 26.7073 -67.2352 main 843 833 P_____________ AL121933 26.7073 -67.2352 HU 120 4 12 301
1933251N15303 1933 50 NA NA NOT_NAMED 1933-09-13 12:00:00 TS 27.0000 -67.8000 120 hurdat_atl main 835 816 O_____________ hurdat_atl AL121933 27.0000 -67.8000 HU 120 4 12 298
1933251N15303 1933 50 NA NA NOT_NAMED 1933-09-13 15:00:00 TS 27.2573 -68.3928 main 825 807 P_____________ AL121933 27.2573 -68.3928 HU 117 4 12 295
1933251N15303 1933 50 NA NA NOT_NAMED 1933-09-13 18:00:00 TS 27.5000 -69.0000 115 hurdat_atl main 811 803 O_____________ hurdat_atl AL121933 27.5000 -69.0000 HU 115 4 12 295
1933251N15303 1933 50 NA NA NOT_NAMED 1933-09-13 21:00:00 TS 27.7572 -69.6001 main 813 803 P_____________ AL121933 27.7572 -69.6001 HU 115 4 12 295
1933251N15303 1933 50 NA NA NOT_NAMED 1933-09-14 00:00:00 TS 28.0000 -70.2000 115 hurdat_atl main 810 794 O_____________ hurdat_atl AL121933 28.0000 -70.2000 HU 115 4 12 293
1933251N15303 1933 50 NA NA NOT_NAMED 1933-09-14 03:00:00 TS 28.2072 -70.8003 main 794 751 P_____________ AL121933 28.2072 -70.8003 HU 115 4 11 291
1933251N15303 1933 50 NA NA NOT_NAMED 1933-09-14 06:00:00 TS 28.4000 -71.4000 115 hurdat_atl main 751 711 O_____________ hurdat_atl AL121933 28.4000 -71.4000 HU 115 4 11 289
1933251N15303 1933 50 NA NA NOT_NAMED 1933-09-14 09:00:00 TS 28.5851 -72.0302 main 711 675 P_____________ AL121933 28.5851 -72.0302 HU 112 3 11 291
1933251N15303 1933 50 NA NA NOT_NAMED 1933-09-14 12:00:00 TS 28.8000 -72.6000 110 hurdat_atl main 675 658 O_____________ hurdat_atl AL121933 28.8000 -72.6000 HU 110 3 10 299
1933251N15303 1933 50 NA NA NOT_NAMED 1933-09-14 15:00:00 TS 29.0697 -73.0453 main 666 652 P_____________ AL121933 29.0697 -73.0453 HU 110 3 9 311
1933251N15303 1933 50 NA NA NOT_NAMED 1933-09-14 18:00:00 TS 29.4000 -73.4000 110 hurdat_atl main 659 606 O_____________ hurdat_atl AL121933 29.4000 -73.4000 HU 110 3 9 320
1933251N15303 1933 50 NA NA NOT_NAMED 1933-09-14 21:00:00 TS 29.7774 -73.7227 main 606 553 P_____________ AL121933 29.7774 -73.7227 HU 110 3 10 327
1933251N15303 1933 50 NA NA NOT_NAMED 1933-09-15 00:00:00 TS 30.2000 -74.0000 110 hurdat_atl main 553 501 O_____________ hurdat_atl AL121933 30.2000 -74.0000 HU 110 3 10 332
1933251N15303 1933 50 NA NA NOT_NAMED 1933-09-15 03:00:00 TS 30.6424 -74.2652 main 501 442 P_____________ AL121933 30.6424 -74.2652 HU 107 3 10 335
1933251N15303 1933 50 NA NA NOT_NAMED 1933-09-15 06:00:00 TS 31.1000 -74.5000 105 hurdat_atl main 442 394 O_____________ hurdat_atl AL121933 31.1000 -74.5000 HU 105 3 10 337
1933251N15303 1933 50 NA NA NOT_NAMED 1933-09-15 09:00:00 TS 31.5575 -74.7225 main 383 335 P_____________ AL121933 31.5575 -74.7225 HU 105 3 10 339
1933251N15303 1933 50 NA NA NOT_NAMED 1933-09-15 12:00:00 TS 32.0000 -74.9000 105 hurdat_atl main 335 291 O_____________ hurdat_atl AL121933 32.0000 -74.9000 HU 105 3 9 343
1933251N15303 1933 50 NA NA NOT_NAMED 1933-09-15 15:00:00 TS 32.4075 -75.0227 main 291 248 P_____________ AL121933 32.4075 -75.0227 HU 105 3 8 348
1933251N15303 1933 50 NA NA NOT_NAMED 1933-09-15 18:00:00 TS 32.8000 -75.1000 105 hurdat_atl main 248 205 O_____________ hurdat_atl AL121933 32.8000 -75.1000 HU 105 3 8 352
1933251N15303 1933 50 NA NA NOT_NAMED 1933-09-15 21:00:00 TS 33.2000 -75.1576 main 205 171 P_____________ AL121933 33.2000 -75.1576 HU 105 3 8 354
1933251N15303 1933 50 NA NA NOT_NAMED 1933-09-16 00:00:00 TS 33.6000 -75.2000 105 hurdat_atl main 171 142 O_____________ hurdat_atl AL121933 33.6000 -75.2000 HU 105 3 8 354
1933251N15303 1933 50 NA NA NOT_NAMED 1933-09-16 03:00:00 TS 34.0000 -75.2500 main 134 106 P_____________ AL121933 34.0000 -75.2500 HU 100 3 8 354
1933251N15303 1933 50 NA NA NOT_NAMED 1933-09-16 06:00:00 TS 34.4000 -75.3000 95 hurdat_atl main 106 82 O_____________ hurdat_atl AL121933 34.4000 -75.3000 HU 95 2 8 352
1933251N15303 1933 50 NA NA NOT_NAMED 1933-09-16 09:00:00 TS 34.7925 -75.3870 main 82 52 P_____________ AL121933 34.7925 -75.3870 HU 92 2 8 354
1933251N15303 1933 50 NA NA NOT_NAMED 1933-09-16 12:00:00 TS 35.2000 -75.4000 90 952 hurdat_atl main 52 28 O_____________ hurdat_atl AL121933 35.2000 -75.4000 HU 90 952 2 9 8
1933251N15303 1933 50 NA NA NOT_NAMED 1933-09-16 15:00:00 TS 35.6425 -75.2453 main 35 26 P_____________ AL121933 35.6425 -75.2453 HU 87 953 2 10 20
1933251N15303 1933 50 NA NA NOT_NAMED 1933-09-16 18:00:00 TS 36.1000 -75.0000 85 954 hurdat_atl main 54 54 O_____________ hurdat_atl AL121933 36.1000 -75.0000 HU 85 954 2 10 21
1933251N15303 1933 50 NA NA NOT_NAMED 1933-09-16 21:00:00 TS 36.5493 -74.8236 main 87 87 P_____________ AL121933 36.5493 -74.8236 HU 82 956 1 10 24
1933251N15303 1933 50 NA NA NOT_NAMED 1933-09-17 00:00:00 TS 37.0000 -74.5000 80 959 hurdat_atl main 119 119 O_____________ hurdat_atl AL121933 37.0000 -74.5000 HU 80 959 1 12 40
1933251N15303 1933 50 NA NA NOT_NAMED 1933-09-17 03:00:00 TS 37.4427 -73.8823 main 144 144 P_____________ AL121933 37.4427 -73.8823 HU 80 1 14 51
1933251N15303 1933 50 NA NA NOT_NAMED 1933-09-17 06:00:00 TS 37.9000 -73.1000 80 hurdat_atl main 180 180 O_____________ hurdat_atl AL121933 37.9000 -73.1000 HU 80 1 15 52
1933251N15303 1933 50 NA NA NOT_NAMED 1933-09-17 09:00:00 TS 38.3918 -72.3364 main 211 211 P_____________ AL121933 38.3918 -72.3364 HU 77 1 16 51
1933251N15303 1933 50 NA NA NOT_NAMED 1933-09-17 12:00:00 TS 38.9000 -71.5000 75 hurdat_atl main 231 223 O_____________ hurdat_atl AL121933 38.9000 -71.5000 HU 75 1 17 54
1933251N15303 1933 50 NA NA NOT_NAMED 1933-09-17 15:00:00 TS 39.3538 -70.6059 main 230 196 P_____________ AL121933 39.3538 -70.6059 HU 75 1 18 56
1933251N15303 1933 50 NA NA NOT_NAMED 1933-09-17 18:00:00 TS 39.9000 -69.6000 75 965 hurdat_atl main 200 169 O_____________ hurdat_atl AL121933 39.9000 -69.6000 HU 75 965 1 21 52
1933251N15303 1933 50 NA NA NOT_NAMED 1933-09-17 21:00:00 TS 40.6472 -68.4446 main 181 173 P_____________ AL121933 40.6472 -68.4446 HU 72 1 24 49
1933251N15303 1933 50 NA NA NOT_NAMED 1933-09-18 00:00:00 TS 41.5000 -67.2000 70 hurdat_atl main 233 135 O_____________ hurdat_atl AL121933 41.5000 -67.2000 HU 70 1 25 48
1933251N15303 1933 50 NA NA NOT_NAMED 1933-09-18 03:00:00 TS 42.3500 -65.9194 main 134 52 P_____________ AL121933 42.3500 -65.9194 HU 70 1 25 47
1933251N15303 1933 50 NA NA NOT_NAMED 1933-09-18 06:00:00 TS 43.2000 -64.7000 70 hurdat_atl main 58 52 O_____________ hurdat_atl AL121933 43.2000 -64.7000 HU 70 1 23 45
1933251N15303 1933 50 NA NA NOT_NAMED 1933-09-18 09:00:00 TS 43.9910 -63.6357 main 44 0 P_____________ AL121933 43.9910 -63.6357 HU 67 1 21 42
1933251N15303 1933 50 NA NA NOT_NAMED 1933-09-18 12:00:00 ET 44.8000 -62.7000 65 hurdat_atl main 0 0 O_____________ hurdat_atl AL121933 44.8000 -62.7000 EX 65 -4 22 37
1933251N15303 1933 50 NA NA NOT_NAMED 1933-09-18 15:00:00 ET 45.7071 -61.7825 main 11 0 P_____________ AL121933 45.7071 -61.7825 EX 62 -4 22 33
1933251N15303 1933 50 NA NA NOT_NAMED 1933-09-18 18:00:00 ET 46.6000 -61.0000 60 hurdat_atl main 0 0 O_____________ hurdat_atl AL121933 46.6000 -61.0000 EX 60 -4 19 29
1933251N15303 1933 50 NA NA NOT_NAMED 1933-09-18 21:00:00 ET 47.3940 -60.3941 main 56 43 P_____________ AL121933 47.3940 -60.3941 EX 60 -4 17 26
1933251N15303 1933 50 NA NA NOT_NAMED 1933-09-19 00:00:00 ET 48.1000 -59.9000 60 hurdat_atl main 43 24 O_____________ hurdat_atl AL121933 48.1000 -59.9000 EX 60 -4 15 27
1933251N15303 1933 50 NA NA NOT_NAMED 1933-09-19 03:00:00 ET 48.7222 -59.3831 main 24 24 P_____________ AL121933 48.7222 -59.3831 EX 60 -4 14 29
1933251N15303 1933 50 NA NA NOT_NAMED 1933-09-19 06:00:00 ET 49.3000 -58.9000 60 hurdat_atl main 49 36 O_____________ hurdat_atl AL121933 49.3000 -58.9000 EX 60 -4 13 27
1933251N15303 1933 50 NA NA NOT_NAMED 1933-09-19 09:00:00 ET 49.9146 -58.4488 main 36 36 P_____________ AL121933 49.9146 -58.4488 EX 60 -4 13 26
1933251N15303 1933 50 NA NA NOT_NAMED 1933-09-19 12:00:00 ET 50.5000 -58.0000 60 965 hurdat_atl main 36 23 O_____________ hurdat_atl AL121933 50.5000 -58.0000 EX 60 965 -4 13 28
1933251N15303 1933 50 NA NA NOT_NAMED 1933-09-19 15:00:00 ET 51.0299 -57.5067 main 30 0 P_____________ AL121933 51.0299 -57.5067 EX 57 -4 12 32
1933251N15303 1933 50 NA NA NOT_NAMED 1933-09-19 18:00:00 ET 51.5000 -57.0000 55 hurdat_atl main 0 0 O_____________ hurdat_atl AL121933 51.5000 -57.0000 EX 55 -4 11 35
1933251N15303 1933 50 NA NA NOT_NAMED 1933-09-19 21:00:00 ET 51.9147 -56.5059 main 0 0 P_____________ AL121933 51.9147 -56.5059 EX 55 -4 10 38
1933251N15303 1933 50 NA NA NOT_NAMED 1933-09-20 00:00:00 ET 52.3000 -56.0000 55 hurdat_atl main 0 0 O_____________ hurdat_atl AL121933 52.3000 -56.0000 EX 55 -4 10 39
1933251N15303 1933 50 NA NA NOT_NAMED 1933-09-20 03:00:00 ET 52.7073 -55.4570 main 22 22 P_____________ AL121933 52.7073 -55.4570 EX 52 -4 10 40
1933251N15303 1933 50 NA NA NOT_NAMED 1933-09-20 06:00:00 ET 53.1000 -54.9000 50 hurdat_atl main 59 59 O_____________ hurdat_atl AL121933 53.1000 -54.9000 EX 50 -4 10 41
1933251N15303 1933 50 NA NA NOT_NAMED 1933-09-20 09:00:00 ET 53.4339 -54.3987 main 93 93 P_____________ AL121933 53.4339 -54.3987 EX 50 -4 10 43
1933251N15303 1933 50 NA NA NOT_NAMED 1933-09-20 12:00:00 ET 53.8000 -53.8000 50 hurdat_atl main 142 142 O_____________ hurdat_atl AL121933 53.8000 -53.8000 EX 50 -4 12 44
1933251N15303 1933 50 NA NA NOT_NAMED 1933-09-20 15:00:00 ET 54.2768 -52.9965 main 210 210 P_____________ AL121933 54.2768 -52.9965 EX 50 -4 14 46
1933251N15303 1933 50 NA NA NOT_NAMED 1933-09-20 18:00:00 ET 54.8000 -52.0000 50 hurdat_atl main 290 290 O_____________ hurdat_atl AL121933 54.8000 -52.0000 EX 50 -4 16 50
1933251N15303 1933 50 NA NA NOT_NAMED 1933-09-20 21:00:00 ET 55.2917 -50.8716 main 378 378 P_____________ AL121933 55.2917 -50.8716 EX 50 -4 17 54
1933251N15303 1933 50 NA NA NOT_NAMED 1933-09-21 00:00:00 ET 55.8000 -49.6000 50 hurdat_atl main 475 457 O_____________ hurdat_atl AL121933 55.8000 -49.6000 EX 50 -4 18 55
1933251N15303 1933 50 NA NA NOT_NAMED 1933-09-21 03:00:00 ET 56.3419 -48.2279 main 454 364 P_____________ AL121933 56.3419 -48.2279 EX 50 -4 19 55
1933251N15303 1933 50 NA NA NOT_NAMED 1933-09-21 06:00:00 ET 56.9000 -46.8000 50 hurdat_atl main 362 290 O_____________ hurdat_atl AL121933 56.9000 -46.8000 EX 50 -4 19 54
1933251N15303 1933 50 NA NA NOT_NAMED 1933-09-21 09:00:00 ET 57.4634 -45.3976 main 278 223 P_____________ AL121933 57.4634 -45.3976 EX 50 -4 19 54
1933251N15303 1933 50 NA NA NOT_NAMED 1933-09-21 12:00:00 ET 58.0000 -44.0000 50 hurdat_atl main 224 188 O_____________ hurdat_atl AL121933 58.0000 -44.0000 EX 50 -4 18 56
1933251N15303 1933 50 NA NA NOT_NAMED 1933-09-21 15:00:00 ET 58.4634 -42.5947 main 179 163 P_____________ AL121933 58.4634 -42.5947 EX 50 -4 17 58
1933251N15303 1933 50 NA NA NOT_NAMED 1933-09-21 18:00:00 ET 58.9000 -41.2000 50 hurdat_atl main 170 169 O_____________ hurdat_atl AL121933 58.9000 -41.2000 EX 50 -4 17 59
1933251N15303 1933 50 NA NA NOT_NAMED 1933-09-21 21:00:00 ET 59.3485 -39.7963 main 204 204 P_____________ AL121933 59.3485 -39.7963 EX 50 -4 17 58
1933251N15303 1933 50 NA NA NOT_NAMED 1933-09-22 00:00:00 ET 59.8000 -38.4000 50 hurdat_atl main 259 259 O_____________ hurdat_atl AL121933 59.8000 -38.4000 EX 50 -4 17 57
1933251N15303 1933 50 NA NA NOT_NAMED 1933-09-22 03:00:00 ET 60.2565 -36.9828 main 314 314 P_____________ AL121933 60.2565 -36.9828 EX 50 -4 16 57
1933251N15303 1933 50 NA NA NOT_NAMED 1933-09-22 06:00:00 ET 60.7000 -35.6000 50 hurdat_atl main 368 368 O_____________ hurdat_atl AL121933 60.7000 -35.6000 EX 50 -4 16 57
1933251N15303 1933 50 NA NA NOT_NAMED 1933-09-22 09:00:00 ET 61.1222 -34.2241 main 427 426 P_____________ AL121933 61.1222 -34.2241 EX 50 -4 15 57
1933251N15303 1933 50 NA NA NOT_NAMED 1933-09-22 12:00:00 ET 61.5000 -33.0000 50 hurdat_atl main 451 451 O_____________ hurdat_atl AL121933 61.5000 -33.0000 EX 50 -4 13 56
1933251N15303 1933 50 NA NA NOT_NAMED 1933-09-22 15:00:00 ET 61.8177 -32.0263 main 477 464 P_____________ AL121933 61.8177 -32.0263 EX 47 -4 10 55
1933251N15303 1933 50 NA NA NOT_NAMED 1933-09-22 18:00:00 ET 62.1000 -31.2000 45 hurdat_atl main 464 O_____________ hurdat_atl AL121933 62.1000 -31.2000 EX 45 -4 10 54

About IBTrACS Database

This database is a web-friendly format of International Best Track Archive for Climate Stewardship (IBTrACS), a global best track data archive curated by NOAA dating back to 1842.

Updated: 2021-11-26